sensor_id;sensor_type;location;lat;lon;timestamp;P1;durP1;ratioP1;P2;durP2;ratioP2
42104;SDS011;61464;51.472;5.712;2022-07-06T00:01:50;6.05;;;2.65;;
42104;SDS011;61464;51.472;5.712;2022-07-06T00:04:19;3.70;;;2.63;;
42104;SDS011;61464;51.472;5.712;2022-07-06T00:06:45;5.22;;;2.70;;
42104;SDS011;61464;51.472;5.712;2022-07-06T00:09:11;5.63;;;2.85;;
42104;SDS011;61464;51.472;5.712;2022-07-06T00:11:37;5.30;;;2.45;;
42104;SDS011;61464;51.472;5.712;2022-07-06T00:14:03;9.43;;;2.60;;
42104;SDS011;61464;51.472;5.712;2022-07-06T00:16:29;7.85;;;2.85;;
42104;SDS011;61464;51.472;5.712;2022-07-06T00:18:55;6.95;;;2.97;;
42104;SDS011;61464;51.472;5.712;2022-07-06T00:21:21;6.60;;;3.00;;
42104;SDS011;61464;51.472;5.712;2022-07-06T00:23:47;5.00;;;2.92;;
42104;SDS011;61464;51.472;5.712;2022-07-06T00:26:13;5.80;;;3.13;;
42104;SDS011;61464;51.472;5.712;2022-07-06T00:28:39;6.82;;;2.95;;
42104;SDS011;61464;51.472;5.712;2022-07-06T00:31:05;4.88;;;2.83;;
42104;SDS011;61464;51.472;5.712;2022-07-06T00:33:31;5.35;;;2.63;;
42104;SDS011;61464;51.472;5.712;2022-07-06T00:35:57;5.22;;;2.70;;
42104;SDS011;61464;51.472;5.712;2022-07-06T00:38:23;3.90;;;2.47;;
42104;SDS011;61464;51.472;5.712;2022-07-06T00:40:49;4.70;;;2.50;;
42104;SDS011;61464;51.472;5.712;2022-07-06T00:43:15;3.60;;;2.55;;
42104;SDS011;61464;51.472;5.712;2022-07-06T00:45:41;5.70;;;2.40;;
42104;SDS011;61464;51.472;5.712;2022-07-06T00:48:07;4.75;;;2.50;;
42104;SDS011;61464;51.472;5.712;2022-07-06T00:50:33;5.25;;;2.20;;
42104;SDS011;61464;51.472;5.712;2022-07-06T00:53:01;6.13;;;2.45;;
42104;SDS011;61464;51.472;5.712;2022-07-06T00:55:31;3.90;;;2.28;;
42104;SDS011;61464;51.472;5.712;2022-07-06T00:58:00;9.38;;;2.30;;
42104;SDS011;61464;51.472;5.712;2022-07-06T01:00:29;6.32;;;2.47;;
42104;SDS011;61464;51.472;5.712;2022-07-06T01:02:55;6.60;;;2.55;;
42104;SDS011;61464;51.472;5.712;2022-07-06T01:05:21;4.70;;;2.53;;
42104;SDS011;61464;51.472;5.712;2022-07-06T01:07:48;4.95;;;2.30;;
42104;SDS011;61464;51.472;5.712;2022-07-06T01:10:16;3.67;;;2.10;;
42104;SDS011;61464;51.472;5.712;2022-07-06T01:12:44;5.57;;;2.28;;
42104;SDS011;61464;51.472;5.712;2022-07-06T01:15:12;4.90;;;2.40;;
42104;SDS011;61464;51.472;5.712;2022-07-06T01:17:45;5.50;;;2.67;;
42104;SDS011;61464;51.472;5.712;2022-07-06T01:20:15;4.60;;;2.75;;
42104;SDS011;61464;51.472;5.712;2022-07-06T01:22:42;4.82;;;3.10;;
42104;SDS011;61464;51.472;5.712;2022-07-06T01:25:09;6.00;;;3.20;;
42104;SDS011;61464;51.472;5.712;2022-07-06T01:27:35;6.43;;;3.28;;
42104;SDS011;61464;51.472;5.712;2022-07-06T01:30:04;10.88;;;3.85;;
42104;SDS011;61464;51.472;5.712;2022-07-06T01:32:33;6.22;;;3.70;;
42104;SDS011;61464;51.472;5.712;2022-07-06T01:35:00;8.80;;;3.95;;
42104;SDS011;61464;51.472;5.712;2022-07-06T01:37:26;6.85;;;3.67;;
42104;SDS011;61464;51.472;5.712;2022-07-06T01:39:52;5.63;;;3.85;;
42104;SDS011;61464;51.472;5.712;2022-07-06T01:42:18;11.60;;;4.15;;
42104;SDS011;61464;51.472;5.712;2022-07-06T01:44:44;8.57;;;3.92;;
42104;SDS011;61464;51.472;5.712;2022-07-06T01:47:10;5.05;;;3.63;;
42104;SDS011;61464;51.472;5.712;2022-07-06T01:49:36;7.88;;;4.10;;
42104;SDS011;61464;51.472;5.712;2022-07-06T01:52:02;8.50;;;4.28;;
42104;SDS011;61464;51.472;5.712;2022-07-06T01:54:28;5.85;;;3.70;;
42104;SDS011;61464;51.472;5.712;2022-07-06T01:56:54;5.65;;;4.18;;
42104;SDS011;61464;51.472;5.712;2022-07-06T01:59:20;5.50;;;3.90;;
42104;SDS011;61464;51.472;5.712;2022-07-06T02:01:46;10.45;;;4.22;;
42104;SDS011;61464;51.472;5.712;2022-07-06T02:04:11;9.50;;;4.40;;
42104;SDS011;61464;51.472;5.712;2022-07-06T02:06:37;7.28;;;4.40;;
42104;SDS011;61464;51.472;5.712;2022-07-06T02:09:03;7.25;;;4.13;;
42104;SDS011;61464;51.472;5.712;2022-07-06T02:11:29;8.43;;;4.47;;
42104;SDS011;61464;51.472;5.712;2022-07-06T02:13:54;8.13;;;4.60;;
42104;SDS011;61464;51.472;5.712;2022-07-06T02:16:20;7.72;;;4.38;;
42104;SDS011;61464;51.472;5.712;2022-07-06T02:18:46;7.30;;;4.22;;
42104;SDS011;61464;51.472;5.712;2022-07-06T02:21:12;8.93;;;4.20;;
42104;SDS011;61464;51.472;5.712;2022-07-06T02:23:38;9.30;;;4.88;;
42104;SDS011;61464;51.472;5.712;2022-07-06T02:26:04;9.65;;;4.60;;
42104;SDS011;61464;51.472;5.712;2022-07-06T02:28:33;7.63;;;4.55;;
42104;SDS011;61464;51.472;5.712;2022-07-06T02:30:59;9.05;;;4.70;;
42104;SDS011;61464;51.472;5.712;2022-07-06T02:33:25;8.07;;;4.80;;
42104;SDS011;61464;51.472;5.712;2022-07-06T02:35:51;7.97;;;4.55;;
42104;SDS011;61464;51.472;5.712;2022-07-06T02:38:16;8.38;;;4.57;;
42104;SDS011;61464;51.472;5.712;2022-07-06T02:40:42;5.88;;;4.07;;
42104;SDS011;61464;51.472;5.712;2022-07-06T02:43:08;8.82;;;4.78;;
42104;SDS011;61464;51.472;5.712;2022-07-06T02:45:33;7.85;;;5.20;;
42104;SDS011;61464;51.472;5.712;2022-07-06T02:47:59;9.50;;;5.13;;
42104;SDS011;61464;51.472;5.712;2022-07-06T02:50:25;6.32;;;4.40;;
42104;SDS011;61464;51.472;5.712;2022-07-06T02:52:51;7.10;;;4.60;;
42104;SDS011;61464;51.472;5.712;2022-07-06T02:55:17;8.18;;;4.85;;
42104;SDS011;61464;51.472;5.712;2022-07-06T02:57:43;7.07;;;4.88;;
42104;SDS011;61464;51.472;5.712;2022-07-06T03:00:09;9.13;;;4.47;;
42104;SDS011;61464;51.472;5.712;2022-07-06T03:02:36;8.77;;;4.45;;
42104;SDS011;61464;51.472;5.712;2022-07-06T03:05:02;5.95;;;4.47;;
42104;SDS011;61464;51.472;5.712;2022-07-06T03:07:28;11.70;;;4.88;;
42104;SDS011;61464;51.472;5.712;2022-07-06T03:09:54;8.60;;;5.00;;
42104;SDS011;61464;51.472;5.712;2022-07-06T03:12:20;7.25;;;4.88;;
42104;SDS011;61464;51.472;5.712;2022-07-06T03:14:46;12.00;;;5.43;;
42104;SDS011;61464;51.472;5.712;2022-07-06T03:17:11;6.95;;;4.57;;
42104;SDS011;61464;51.472;5.712;2022-07-06T03:19:37;9.80;;;5.43;;
42104;SDS011;61464;51.472;5.712;2022-07-06T03:22:04;10.32;;;5.25;;
42104;SDS011;61464;51.472;5.712;2022-07-06T03:24:29;11.40;;;5.10;;
42104;SDS011;61464;51.472;5.712;2022-07-06T03:26:55;8.65;;;4.75;;
42104;SDS011;61464;51.472;5.712;2022-07-06T03:29:21;9.50;;;5.25;;
42104;SDS011;61464;51.472;5.712;2022-07-06T03:31:47;10.82;;;5.53;;
42104;SDS011;61464;51.472;5.712;2022-07-06T03:34:13;7.28;;;4.97;;
42104;SDS011;61464;51.472;5.712;2022-07-06T03:36:38;10.73;;;5.13;;
42104;SDS011;61464;51.472;5.712;2022-07-06T03:39:04;8.63;;;4.80;;
42104;SDS011;61464;51.472;5.712;2022-07-06T03:41:31;10.50;;;5.15;;
42104;SDS011;61464;51.472;5.712;2022-07-06T03:43:58;9.13;;;5.22;;
42104;SDS011;61464;51.472;5.712;2022-07-06T03:46:24;7.38;;;4.80;;
42104;SDS011;61464;51.472;5.712;2022-07-06T03:48:50;10.40;;;5.97;;
42104;SDS011;61464;51.472;5.712;2022-07-06T03:51:16;9.32;;;5.30;;
42104;SDS011;61464;51.472;5.712;2022-07-06T03:53:42;16.20;;;5.40;;
42104;SDS011;61464;51.472;5.712;2022-07-06T03:56:08;8.40;;;5.13;;
42104;SDS011;61464;51.472;5.712;2022-07-06T03:58:53;7.78;;;5.00;;
42104;SDS011;61464;51.472;5.712;2022-07-06T04:01:22;8.63;;;5.20;;
42104;SDS011;61464;51.472;5.712;2022-07-06T04:03:48;9.05;;;4.90;;
42104;SDS011;61464;51.472;5.712;2022-07-06T04:06:14;7.88;;;5.13;;
42104;SDS011;61464;51.472;5.712;2022-07-06T04:08:40;8.55;;;4.88;;
42104;SDS011;61464;51.472;5.712;2022-07-06T04:11:06;8.60;;;5.07;;
42104;SDS011;61464;51.472;5.712;2022-07-06T04:13:32;9.77;;;4.80;;
42104;SDS011;61464;51.472;5.712;2022-07-06T04:15:58;10.50;;;4.45;;
42104;SDS011;61464;51.472;5.712;2022-07-06T04:18:24;9.48;;;4.63;;
42104;SDS011;61464;51.472;5.712;2022-07-06T04:20:50;7.85;;;4.50;;
42104;SDS011;61464;51.472;5.712;2022-07-06T04:23:16;9.80;;;4.30;;
42104;SDS011;61464;51.472;5.712;2022-07-06T04:25:42;9.82;;;4.63;;
42104;SDS011;61464;51.472;5.712;2022-07-06T04:28:08;7.20;;;4.00;;
42104;SDS011;61464;51.472;5.712;2022-07-06T04:30:34;8.45;;;4.03;;
42104;SDS011;61464;51.472;5.712;2022-07-06T04:33:00;7.55;;;3.80;;
42104;SDS011;61464;51.472;5.712;2022-07-06T04:35:26;7.85;;;4.05;;
42104;SDS011;61464;51.472;5.712;2022-07-06T04:37:52;5.15;;;3.60;;
42104;SDS011;61464;51.472;5.712;2022-07-06T04:40:18;6.63;;;3.85;;
42104;SDS011;61464;51.472;5.712;2022-07-06T04:42:43;6.93;;;3.90;;
42104;SDS011;61464;51.472;5.712;2022-07-06T04:45:10;7.03;;;3.72;;
42104;SDS011;61464;51.472;5.712;2022-07-06T04:47:35;5.55;;;3.40;;
42104;SDS011;61464;51.472;5.712;2022-07-06T04:50:02;7.90;;;3.58;;
42104;SDS011;61464;51.472;5.712;2022-07-06T04:52:29;5.20;;;3.40;;
42104;SDS011;61464;51.472;5.712;2022-07-06T04:54:55;6.80;;;3.40;;
42104;SDS011;61464;51.472;5.712;2022-07-06T04:57:21;8.27;;;3.15;;
42104;SDS011;61464;51.472;5.712;2022-07-06T04:59:47;9.57;;;3.65;;
42104;SDS011;61464;51.472;5.712;2022-07-06T05:02:12;5.50;;;2.80;;
42104;SDS011;61464;51.472;5.712;2022-07-06T05:04:38;8.25;;;2.97;;
42104;SDS011;61464;51.472;5.712;2022-07-06T05:07:04;7.68;;;2.75;;
42104;SDS011;61464;51.472;5.712;2022-07-06T05:09:30;5.65;;;2.70;;
42104;SDS011;61464;51.472;5.712;2022-07-06T05:11:56;4.43;;;2.78;;
42104;SDS011;61464;51.472;5.712;2022-07-06T05:14:22;3.75;;;2.72;;
42104;SDS011;61464;51.472;5.712;2022-07-06T05:16:48;8.65;;;2.83;;
42104;SDS011;61464;51.472;5.712;2022-07-06T05:19:14;5.90;;;2.65;;
42104;SDS011;61464;51.472;5.712;2022-07-06T05:21:39;5.85;;;2.80;;
42104;SDS011;61464;51.472;5.712;2022-07-06T05:24:05;5.75;;;2.40;;
42104;SDS011;61464;51.472;5.712;2022-07-06T05:26:31;5.80;;;2.33;;
42104;SDS011;61464;51.472;5.712;2022-07-06T05:28:57;5.30;;;2.70;;
42104;SDS011;61464;51.472;5.712;2022-07-06T05:31:23;6.32;;;2.70;;
42104;SDS011;61464;51.472;5.712;2022-07-06T05:33:49;7.07;;;2.55;;
42104;SDS011;61464;51.472;5.712;2022-07-06T05:36:15;3.67;;;2.10;;
42104;SDS011;61464;51.472;5.712;2022-07-06T05:38:40;3.95;;;2.35;;
42104;SDS011;61464;51.472;5.712;2022-07-06T05:41:06;3.88;;;1.95;;
42104;SDS011;61464;51.472;5.712;2022-07-06T05:43:32;5.25;;;1.98;;
42104;SDS011;61464;51.472;5.712;2022-07-06T05:46:01;4.25;;;1.60;;
42104;SDS011;61464;51.472;5.712;2022-07-06T05:48:27;6.18;;;1.92;;
42104;SDS011;61464;51.472;5.712;2022-07-06T05:51:12;5.40;;;1.52;;
42104;SDS011;61464;51.472;5.712;2022-07-06T05:53:38;4.20;;;1.65;;
42104;SDS011;61464;51.472;5.712;2022-07-06T05:56:04;4.15;;;1.40;;
42104;SDS011;61464;51.472;5.712;2022-07-06T05:58:30;3.88;;;1.27;;
42104;SDS011;61464;51.472;5.712;2022-07-06T06:00:55;3.63;;;1.38;;
42104;SDS011;61464;51.472;5.712;2022-07-06T06:03:21;3.15;;;1.40;;
42104;SDS011;61464;51.472;5.712;2022-07-06T06:05:47;2.58;;;1.50;;
42104;SDS011;61464;51.472;5.712;2022-07-06T06:08:13;3.83;;;1.42;;
42104;SDS011;61464;51.472;5.712;2022-07-06T06:10:39;4.35;;;1.85;;
42104;SDS011;61464;51.472;5.712;2022-07-06T06:13:05;5.40;;;1.50;;
42104;SDS011;61464;51.472;5.712;2022-07-06T06:15:33;3.65;;;1.67;;
42104;SDS011;61464;51.472;5.712;2022-07-06T06:18:00;3.60;;;1.52;;
42104;SDS011;61464;51.472;5.712;2022-07-06T06:20:36;3.28;;;1.45;;
42104;SDS011;61464;51.472;5.712;2022-07-06T06:23:02;3.60;;;1.60;;
42104;SDS011;61464;51.472;5.712;2022-07-06T06:25:33;4.78;;;1.42;;
42104;SDS011;61464;51.472;5.712;2022-07-06T06:28:03;6.90;;;1.58;;
42104;SDS011;61464;51.472;5.712;2022-07-06T06:30:34;3.47;;;1.70;;
42104;SDS011;61464;51.472;5.712;2022-07-06T06:33:14;2.38;;;1.60;;
42104;SDS011;61464;51.472;5.712;2022-07-06T06:35:46;2.58;;;1.55;;
42104;SDS011;61464;51.472;5.712;2022-07-06T06:38:21;6.65;;;1.90;;
42104;SDS011;61464;51.472;5.712;2022-07-06T06:40:50;5.45;;;1.50;;
42104;SDS011;61464;51.472;5.712;2022-07-06T06:43:18;2.50;;;1.65;;
42104;SDS011;61464;51.472;5.712;2022-07-06T06:45:44;3.13;;;1.73;;
42104;SDS011;61464;51.472;5.712;2022-07-06T06:48:12;2.83;;;1.63;;
42104;SDS011;61464;51.472;5.712;2022-07-06T06:50:47;2.75;;;1.50;;
42104;SDS011;61464;51.472;5.712;2022-07-06T06:53:13;2.45;;;1.60;;
42104;SDS011;61464;51.472;5.712;2022-07-06T06:55:39;2.67;;;1.50;;
42104;SDS011;61464;51.472;5.712;2022-07-06T06:58:05;4.00;;;1.70;;
42104;SDS011;61464;51.472;5.712;2022-07-06T07:00:32;3.60;;;1.50;;
42104;SDS011;61464;51.472;5.712;2022-07-06T07:02:58;2.63;;;1.38;;
42104;SDS011;61464;51.472;5.712;2022-07-06T07:05:30;2.97;;;1.60;;
42104;SDS011;61464;51.472;5.712;2022-07-06T07:07:57;4.47;;;1.60;;
42104;SDS011;61464;51.472;5.712;2022-07-06T07:10:24;2.15;;;1.60;;
42104;SDS011;61464;51.472;5.712;2022-07-06T07:12:58;5.00;;;1.50;;
42104;SDS011;61464;51.472;5.712;2022-07-06T07:15:33;3.95;;;1.50;;
42104;SDS011;61464;51.472;5.712;2022-07-06T07:17:59;8.65;;;1.27;;
42104;SDS011;61464;51.472;5.712;2022-07-06T07:20:25;5.22;;;0.90;;
42104;SDS011;61464;51.472;5.712;2022-07-06T07:22:54;1.65;;;0.93;;
42104;SDS011;61464;51.472;5.712;2022-07-06T07:25:21;4.32;;;1.05;;
42104;SDS011;61464;51.472;5.712;2022-07-06T07:27:48;1.88;;;0.85;;
42104;SDS011;61464;51.472;5.712;2022-07-06T07:30:16;3.92;;;0.93;;
42104;SDS011;61464;51.472;5.712;2022-07-06T07:32:42;3.28;;;0.90;;
42104;SDS011;61464;51.472;5.712;2022-07-06T07:35:08;1.58;;;0.80;;
42104;SDS011;61464;51.472;5.712;2022-07-06T07:37:54;3.33;;;0.90;;
42104;SDS011;61464;51.472;5.712;2022-07-06T07:40:20;3.38;;;0.90;;
42104;SDS011;61464;51.472;5.712;2022-07-06T07:42:48;5.32;;;0.80;;
42104;SDS011;61464;51.472;5.712;2022-07-06T07:45:15;0.77;;;0.70;;
42104;SDS011;61464;51.472;5.712;2022-07-06T07:47:41;2.40;;;0.80;;
42104;SDS011;61464;51.472;5.712;2022-07-06T07:50:08;2.33;;;0.90;;
42104;SDS011;61464;51.472;5.712;2022-07-06T07:52:35;3.08;;;1.00;;
42104;SDS011;61464;51.472;5.712;2022-07-06T07:55:02;4.43;;;1.00;;
42104;SDS011;61464;51.472;5.712;2022-07-06T07:57:28;4.03;;;1.23;;
42104;SDS011;61464;51.472;5.712;2022-07-06T07:59:54;1.33;;;0.70;;
42104;SDS011;61464;51.472;5.712;2022-07-06T08:02:19;5.88;;;0.90;;
42104;SDS011;61464;51.472;5.712;2022-07-06T08:04:45;1.80;;;0.70;;
42104;SDS011;61464;51.472;5.712;2022-07-06T08:07:11;1.30;;;0.85;;
42104;SDS011;61464;51.472;5.712;2022-07-06T08:09:36;4.53;;;1.10;;
42104;SDS011;61464;51.472;5.712;2022-07-06T08:12:02;1.75;;;0.80;;
42104;SDS011;61464;51.472;5.712;2022-07-06T08:14:28;3.00;;;0.90;;
42104;SDS011;61464;51.472;5.712;2022-07-06T08:16:54;1.42;;;0.80;;
42104;SDS011;61464;51.472;5.712;2022-07-06T08:19:20;1.75;;;0.90;;
42104;SDS011;61464;51.472;5.712;2022-07-06T08:21:46;3.10;;;1.00;;
42104;SDS011;61464;51.472;5.712;2022-07-06T08:24:12;2.28;;;1.08;;
42104;SDS011;61464;51.472;5.712;2022-07-06T08:26:38;1.75;;;0.90;;
42104;SDS011;61464;51.472;5.712;2022-07-06T08:29:04;1.77;;;0.90;;
42104;SDS011;61464;51.472;5.712;2022-07-06T08:31:30;4.10;;;1.00;;
42104;SDS011;61464;51.472;5.712;2022-07-06T08:33:56;2.03;;;1.20;;
42104;SDS011;61464;51.472;5.712;2022-07-06T08:36:22;3.90;;;1.00;;
42104;SDS011;61464;51.472;5.712;2022-07-06T08:38:49;3.33;;;1.17;;
42104;SDS011;61464;51.472;5.712;2022-07-06T08:41:15;3.78;;;1.30;;
42104;SDS011;61464;51.472;5.712;2022-07-06T08:43:43;4.10;;;0.98;;
42104;SDS011;61464;51.472;5.712;2022-07-06T08:46:09;2.83;;;0.77;;
42104;SDS011;61464;51.472;5.712;2022-07-06T08:48:38;2.15;;;0.85;;
42104;SDS011;61464;51.472;5.712;2022-07-06T08:51:05;2.67;;;1.00;;
42104;SDS011;61464;51.472;5.712;2022-07-06T08:53:32;2.28;;;0.90;;
42104;SDS011;61464;51.472;5.712;2022-07-06T08:55:58;5.25;;;1.20;;
42104;SDS011;61464;51.472;5.712;2022-07-06T08:58:26;3.83;;;1.20;;
42104;SDS011;61464;51.472;5.712;2022-07-06T09:00:53;2.65;;;1.00;;
42104;SDS011;61464;51.472;5.712;2022-07-06T09:03:20;4.97;;;1.30;;
42104;SDS011;61464;51.472;5.712;2022-07-06T09:05:46;3.25;;;1.20;;
42104;SDS011;61464;51.472;5.712;2022-07-06T09:08:13;2.28;;;0.70;;
42104;SDS011;61464;51.472;5.712;2022-07-06T09:10:39;2.67;;;1.00;;
42104;SDS011;61464;51.472;5.712;2022-07-06T09:13:05;3.75;;;0.90;;
42104;SDS011;61464;51.472;5.712;2022-07-06T09:15:34;3.05;;;0.77;;
42104;SDS011;61464;51.472;5.712;2022-07-06T09:18:03;3.25;;;0.90;;
42104;SDS011;61464;51.472;5.712;2022-07-06T09:20:30;8.48;;;0.98;;
42104;SDS011;61464;51.472;5.712;2022-07-06T09:22:58;2.60;;;0.80;;
42104;SDS011;61464;51.472;5.712;2022-07-06T09:25:30;3.42;;;0.82;;
42104;SDS011;61464;51.472;5.712;2022-07-06T09:27:56;1.73;;;0.93;;
42104;SDS011;61464;51.472;5.712;2022-07-06T09:30:24;5.85;;;0.98;;
42104;SDS011;61464;51.472;5.712;2022-07-06T09:32:52;3.30;;;0.80;;
42104;SDS011;61464;51.472;5.712;2022-07-06T09:38:14;5.10;;;0.70;;
42104;SDS011;61464;51.472;5.712;2022-07-06T09:40:41;5.32;;;0.98;;
42104;SDS011;61464;51.472;5.712;2022-07-06T09:43:13;5.68;;;1.08;;
42104;SDS011;61464;51.472;5.712;2022-07-06T09:48:22;3.17;;;0.80;;
42104;SDS011;61464;51.472;5.712;2022-07-06T09:53:24;2.78;;;0.90;;
42104;SDS011;61464;51.472;5.712;2022-07-06T09:55:52;5.55;;;1.05;;
42104;SDS011;61464;51.472;5.712;2022-07-06T09:58:21;3.17;;;0.88;;
42104;SDS011;61464;51.472;5.712;2022-07-06T10:00:48;5.38;;;1.27;;
42104;SDS011;61464;51.472;5.712;2022-07-06T10:03:15;3.42;;;0.95;;
42104;SDS011;61464;51.472;5.712;2022-07-06T10:05:43;1.73;;;0.65;;
42104;SDS011;61464;51.472;5.712;2022-07-06T10:08:12;2.25;;;0.70;;
42104;SDS011;61464;51.472;5.712;2022-07-06T10:10:40;2.50;;;0.90;;
42104;SDS011;61464;51.472;5.712;2022-07-06T10:13:07;2.03;;;0.70;;
42104;SDS011;61464;51.472;5.712;2022-07-06T10:15:35;1.52;;;0.70;;
42104;SDS011;61464;51.472;5.712;2022-07-06T10:18:04;2.35;;;0.70;;
42104;SDS011;61464;51.472;5.712;2022-07-06T10:20:33;2.72;;;0.68;;
42104;SDS011;61464;51.472;5.712;2022-07-06T10:23:03;2.10;;;0.70;;
42104;SDS011;61464;51.472;5.712;2022-07-06T10:25:31;6.15;;;0.95;;
42104;SDS011;61464;51.472;5.712;2022-07-06T10:27:58;2.83;;;0.80;;
42104;SDS011;61464;51.472;5.712;2022-07-06T10:30:25;8.32;;;1.30;;
42104;SDS011;61464;51.472;5.712;2022-07-06T10:32:52;3.25;;;0.60;;
42104;SDS011;61464;51.472;5.712;2022-07-06T10:35:21;4.95;;;0.65;;
42104;SDS011;61464;51.472;5.712;2022-07-06T10:38:02;3.13;;;0.60;;
42104;SDS011;61464;51.472;5.712;2022-07-06T10:40:37;3.30;;;0.70;;
42104;SDS011;61464;51.472;5.712;2022-07-06T10:43:23;6.63;;;0.70;;
42104;SDS011;61464;51.472;5.712;2022-07-06T10:46:10;4.13;;;0.70;;
42104;SDS011;61464;51.472;5.712;2022-07-06T10:48:45;2.67;;;0.90;;
42104;SDS011;61464;51.472;5.712;2022-07-06T10:51:22;2.35;;;0.70;;
42104;SDS011;61464;51.472;5.712;2022-07-06T10:53:56;3.78;;;0.70;;
42104;SDS011;61464;51.472;5.712;2022-07-06T10:59:21;1.27;;;0.50;;
42104;SDS011;61464;51.472;5.712;2022-07-06T11:04:43;2.22;;;0.60;;
42104;SDS011;61464;51.472;5.712;2022-07-06T11:07:17;2.90;;;0.68;;
42104;SDS011;61464;51.472;5.712;2022-07-06T11:09:54;1.90;;;0.60;;
42104;SDS011;61464;51.472;5.712;2022-07-06T11:12:22;1.30;;;0.75;;
42104;SDS011;61464;51.472;5.712;2022-07-06T11:14:49;4.15;;;0.80;;
42104;SDS011;61464;51.472;5.712;2022-07-06T11:17:17;2.08;;;0.70;;
42104;SDS011;61464;51.472;5.712;2022-07-06T11:20:08;2.03;;;0.80;;
42104;SDS011;61464;51.472;5.712;2022-07-06T11:22:37;5.50;;;0.77;;
42104;SDS011;61464;51.472;5.712;2022-07-06T11:25:04;3.83;;;0.70;;
42104;SDS011;61464;51.472;5.712;2022-07-06T11:27:31;2.80;;;0.63;;
42104;SDS011;61464;51.472;5.712;2022-07-06T11:30:01;3.65;;;0.60;;
42104;SDS011;61464;51.472;5.712;2022-07-06T11:32:27;2.20;;;0.77;;
42104;SDS011;61464;51.472;5.712;2022-07-06T11:34:53;1.42;;;0.60;;
42104;SDS011;61464;51.472;5.712;2022-07-06T11:37:19;2.65;;;0.82;;
42104;SDS011;61464;51.472;5.712;2022-07-06T11:39:48;3.13;;;0.60;;
42104;SDS011;61464;51.472;5.712;2022-07-06T11:42:14;2.80;;;0.68;;
42104;SDS011;61464;51.472;5.712;2022-07-06T11:44:43;2.67;;;0.73;;
42104;SDS011;61464;51.472;5.712;2022-07-06T11:47:10;3.25;;;0.60;;
42104;SDS011;61464;51.472;5.712;2022-07-06T11:49:37;2.67;;;0.80;;
42104;SDS011;61464;51.472;5.712;2022-07-06T11:52:13;3.95;;;0.70;;
42104;SDS011;61464;51.472;5.712;2022-07-06T11:54:40;2.20;;;0.75;;
42104;SDS011;61464;51.472;5.712;2022-07-06T11:57:07;1.58;;;0.63;;
42104;SDS011;61464;51.472;5.712;2022-07-06T11:59:36;1.27;;;0.60;;
42104;SDS011;61464;51.472;5.712;2022-07-06T12:02:05;1.08;;;0.68;;
42104;SDS011;61464;51.472;5.712;2022-07-06T12:04:33;3.30;;;0.70;;
42104;SDS011;61464;51.472;5.712;2022-07-06T12:07:03;2.28;;;0.70;;
42104;SDS011;61464;51.472;5.712;2022-07-06T12:09:33;2.22;;;0.60;;
42104;SDS011;61464;51.472;5.712;2022-07-06T12:12:02;2.65;;;0.73;;
42104;SDS011;61464;51.472;5.712;2022-07-06T12:14:32;2.00;;;0.70;;
42104;SDS011;61464;51.472;5.712;2022-07-06T12:17:03;1.58;;;0.60;;
42104;SDS011;61464;51.472;5.712;2022-07-06T12:19:34;6.03;;;0.60;;
42104;SDS011;61464;51.472;5.712;2022-07-06T12:22:01;3.08;;;0.60;;
42104;SDS011;61464;51.472;5.712;2022-07-06T12:24:29;2.38;;;0.57;;
42104;SDS011;61464;51.472;5.712;2022-07-06T12:26:57;2.08;;;0.70;;
42104;SDS011;61464;51.472;5.712;2022-07-06T12:29:35;1.40;;;0.60;;
42104;SDS011;61464;51.472;5.712;2022-07-06T12:32:00;2.95;;;0.55;;
42104;SDS011;61464;51.472;5.712;2022-07-06T12:34:27;2.35;;;0.60;;
42104;SDS011;61464;51.472;5.712;2022-07-06T12:37:05;3.28;;;1.00;;
42104;SDS011;61464;51.472;5.712;2022-07-06T12:39:40;1.83;;;0.60;;
42104;SDS011;61464;51.472;5.712;2022-07-06T12:42:12;1.27;;;0.68;;
42104;SDS011;61464;51.472;5.712;2022-07-06T12:44:47;2.92;;;0.57;;
42104;SDS011;61464;51.472;5.712;2022-07-06T12:47:21;2.00;;;0.55;;
42104;SDS011;61464;51.472;5.712;2022-07-06T12:50:03;2.50;;;0.70;;
42104;SDS011;61464;51.472;5.712;2022-07-06T12:52:34;3.33;;;0.60;;
42104;SDS011;61464;51.472;5.712;2022-07-06T12:55:01;2.35;;;0.50;;
42104;SDS011;61464;51.472;5.712;2022-07-06T12:57:42;2.60;;;0.55;;
42104;SDS011;61464;51.472;5.712;2022-07-06T13:00:13;3.67;;;0.57;;
42104;SDS011;61464;51.472;5.712;2022-07-06T13:02:43;0.82;;;0.50;;
42104;SDS011;61464;51.472;5.712;2022-07-06T13:05:13;1.17;;;0.55;;
42104;SDS011;61464;51.472;5.712;2022-07-06T13:07:44;3.00;;;0.77;;
42104;SDS011;61464;51.472;5.712;2022-07-06T13:10:13;0.70;;;0.35;;
42104;SDS011;61464;51.472;5.712;2022-07-06T13:12:40;4.47;;;0.60;;
42104;SDS011;61464;51.472;5.712;2022-07-06T13:15:06;2.72;;;0.60;;
42104;SDS011;61464;51.472;5.712;2022-07-06T13:17:34;3.72;;;0.80;;
42104;SDS011;61464;51.472;5.712;2022-07-06T13:20:02;2.83;;;0.70;;
42104;SDS011;61464;51.472;5.712;2022-07-06T13:22:29;1.40;;;0.50;;
42104;SDS011;61464;51.472;5.712;2022-07-06T13:24:55;4.80;;;0.65;;
42104;SDS011;61464;51.472;5.712;2022-07-06T13:27:21;3.67;;;0.65;;
42104;SDS011;61464;51.472;5.712;2022-07-06T13:29:46;2.65;;;0.70;;
42104;SDS011;61464;51.472;5.712;2022-07-06T13:32:12;2.85;;;0.57;;
42104;SDS011;61464;51.472;5.712;2022-07-06T13:34:38;2.10;;;0.60;;
42104;SDS011;61464;51.472;5.712;2022-07-06T13:37:04;1.23;;;0.60;;
42104;SDS011;61464;51.472;5.712;2022-07-06T13:39:31;3.15;;;0.70;;
42104;SDS011;61464;51.472;5.712;2022-07-06T13:41:57;2.47;;;0.85;;
42104;SDS011;61464;51.472;5.712;2022-07-06T13:44:24;2.17;;;0.77;;
42104;SDS011;61464;51.472;5.712;2022-07-06T13:46:50;1.00;;;0.45;;
42104;SDS011;61464;51.472;5.712;2022-07-06T13:49:17;4.63;;;0.70;;
42104;SDS011;61464;51.472;5.712;2022-07-06T13:51:43;5.75;;;0.90;;
42104;SDS011;61464;51.472;5.712;2022-07-06T13:54:09;2.15;;;0.60;;
42104;SDS011;61464;51.472;5.712;2022-07-06T13:56:36;8.02;;;0.75;;
42104;SDS011;61464;51.472;5.712;2022-07-06T13:59:04;2.15;;;0.70;;
42104;SDS011;61464;51.472;5.712;2022-07-06T14:01:30;2.78;;;0.57;;
42104;SDS011;61464;51.472;5.712;2022-07-06T14:03:56;3.33;;;0.70;;
42104;SDS011;61464;51.472;5.712;2022-07-06T14:06:22;2.78;;;0.60;;
42104;SDS011;61464;51.472;5.712;2022-07-06T14:08:48;3.20;;;1.20;;
42104;SDS011;61464;51.472;5.712;2022-07-06T14:11:14;2.78;;;0.80;;
42104;SDS011;61464;51.472;5.712;2022-07-06T14:13:40;3.10;;;1.00;;
42104;SDS011;61464;51.472;5.712;2022-07-06T14:16:06;3.67;;;0.80;;
42104;SDS011;61464;51.472;5.712;2022-07-06T14:18:32;4.50;;;0.93;;
42104;SDS011;61464;51.472;5.712;2022-07-06T14:20:58;2.42;;;0.70;;
42104;SDS011;61464;51.472;5.712;2022-07-06T14:23:28;5.03;;;0.93;;
42104;SDS011;61464;51.472;5.712;2022-07-06T14:25:55;2.85;;;0.95;;
42104;SDS011;61464;51.472;5.712;2022-07-06T14:28:22;2.70;;;1.08;;
42104;SDS011;61464;51.472;5.712;2022-07-06T14:30:48;4.35;;;0.80;;
42104;SDS011;61464;51.472;5.712;2022-07-06T14:33:14;4.22;;;0.90;;
42104;SDS011;61464;51.472;5.712;2022-07-06T14:35:45;3.72;;;0.80;;
42104;SDS011;61464;51.472;5.712;2022-07-06T14:38:13;3.63;;;0.70;;
42104;SDS011;61464;51.472;5.712;2022-07-06T14:40:41;4.07;;;1.20;;
42104;SDS011;61464;51.472;5.712;2022-07-06T14:43:07;1.95;;;0.60;;
42104;SDS011;61464;51.472;5.712;2022-07-06T14:45:33;1.88;;;0.68;;
42104;SDS011;61464;51.472;5.712;2022-07-06T14:47:59;3.05;;;0.90;;
42104;SDS011;61464;51.472;5.712;2022-07-06T14:50:25;5.22;;;1.17;;
42104;SDS011;61464;51.472;5.712;2022-07-06T14:52:53;3.33;;;0.90;;
42104;SDS011;61464;51.472;5.712;2022-07-06T14:55:20;3.90;;;1.27;;
42104;SDS011;61464;51.472;5.712;2022-07-06T14:57:46;2.50;;;0.98;;
42104;SDS011;61464;51.472;5.712;2022-07-06T15:00:13;3.80;;;0.80;;
42104;SDS011;61464;51.472;5.712;2022-07-06T15:02:40;7.65;;;1.48;;
42104;SDS011;61464;51.472;5.712;2022-07-06T15:05:07;3.70;;;1.20;;